Time;durP1;ratioP1;P1;durP2;ratioP2;P2;SDS_P1;SDS_P2;PMS_P1;PMS_P2;Temp;Humidity;BMP_temperature;BMP_pressure;BME280_temperature;BME280_humidity;BME280_pressure;Samples;Min_cycle;Max_cycle;Signal;HPM_P1;HPM_P2
2023/05/24 00:01:58;;;;;;;;;4.00;1.50;;;;;12.17;61.18;102478.13;5050815;28;10846;-65
2023/05/24 00:04:28;;;;;;;;;2.50;2.25;;;;;12.13;61.83;102484.88;5037863;28;10663;-66
2023/05/24 00:06:55;;;;;;;;;2.50;2.50;;;;;12.08;61.93;102481.84;5033366;28;10142;-65
2023/05/24 00:09:22;;;;;;;;;4.00;4.00;;;;;12.05;62.11;102487.53;5034586;28;10033;-67
2023/05/24 00:11:48;;;;;;;;;3.25;1.50;;;;;12.03;62.12;102482.31;5038796;28;10234;-66
2023/05/24 00:14:15;;;;;;;;;2.00;2.00;;;;;12.02;62.51;102487.88;5046748;28;10156;-66
2023/05/24 00:16:41;;;;;;;;;5.00;2.00;;;;;12.00;62.61;102489.91;5045310;28;10277;-66
2023/05/24 00:19:09;;;;;;;;;1.50;1.00;;;;;11.98;62.49;102491.91;5043243;28;10087;-66
2023/05/24 00:21:36;;;;;;;;;4.75;2.75;;;;;11.94;62.51;102485.97;5032570;28;9928;-67
2023/05/24 00:24:03;;;;;;;;;3.25;3.25;;;;;11.91;62.68;102482.75;5040274;28;10156;-66
2023/05/24 00:26:29;;;;;;;;;2.25;2.25;;;;;11.88;62.79;102483.94;5044294;28;10196;-66
2023/05/24 00:28:56;;;;;;;;;2.00;2.00;;;;;11.86;63.03;102481.38;5026827;28;10139;-66
2023/05/24 00:31:22;;;;;;;;;1.50;1.50;;;;;11.85;63.13;102479.72;5049469;28;10075;-67
2023/05/24 00:33:49;;;;;;;;;1.75;1.75;;;;;11.83;63.22;102483.59;5055877;28;10166;-65
2023/05/24 00:36:17;;;;;;;;;4.00;4.00;;;;;11.82;63.22;102477.28;5062745;28;10092;-65
2023/05/24 00:38:46;;;;;;;;;7.00;5.75;;;;;11.83;63.37;102483.59;5041154;28;10150;-66
2023/05/24 00:41:14;;;;;;;;;2.00;2.00;;;;;11.85;63.46;102481.56;5046817;28;10311;-66
2023/05/24 00:43:44;;;;;;;;;8.50;4.00;;;;;11.86;63.45;102484.09;5042316;28;10236;-66
2023/05/24 00:46:31;;;;;;;;;3.50;3.50;;;;;11.88;63.21;102481.25;5043184;28;10241;-66
2023/05/24 00:48:59;;;;;;;;;2.50;2.50;;;;;11.88;63.32;102476.69;5038916;28;10288;-66
2023/05/24 00:51:26;;;;;;;;;5.75;4.00;;;;;11.88;63.46;102479.38;5051612;28;11004;-66
2023/05/24 00:53:53;;;;;;;;;2.00;2.00;;;;;11.91;63.52;102474.66;5031011;28;10373;-67
2023/05/24 00:56:20;;;;;;;;;5.00;2.25;;;;;11.90;63.08;102478.38;5030369;28;10294;-66
2023/05/24 00:58:49;;;;;;;;;4.00;3.00;;;;;11.88;63.33;102476.69;5029358;28;10398;-67
2023/05/24 01:01:15;;;;;;;;;2.00;2.00;;;;;11.87;63.50;102466.91;5049513;28;10310;-66
2023/05/24 01:03:44;;;;;;;;;1.00;1.00;;;;;11.86;63.50;102469.75;5047695;28;10185;-66
2023/05/24 01:06:14;;;;;;;;;6.00;2.00;;;;;11.87;63.54;102474.16;5057499;28;10110;-67
2023/05/24 01:08:48;;;;;;;;;3.00;2.00;;;;;11.87;63.85;102475.00;5046697;28;10157;-66
2023/05/24 01:11:28;;;;;;;;;3.50;3.00;;;;;11.87;63.58;102475.00;5036808;28;10417;-67
2023/05/24 01:14:38;;;;;;;;;3.50;1.25;;;;;11.85;63.88;102471.63;5042818;28;10153;-66
2023/05/24 01:17:23;;;;;;;;;5.50;5.00;;;;;11.80;63.89;102471.22;5007730;28;10170;-66
2023/05/24 01:20:05;;;;;;;;;1.00;1.00;;;;;11.79;64.11;102474.94;5039761;28;10142;-67
2023/05/24 01:23:05;;;;;;;;;1.00;1.00;;;;;11.78;64.23;102467.00;5031450;28;10033;-66
2023/05/24 01:26:13;;;;;;;;;1.25;1.25;;;;;11.78;64.66;102461.59;5046697;28;10095;-66
2023/05/24 01:28:42;;;;;;;;;4.50;3.75;;;;;11.80;64.73;102463.13;5036126;28;10149;-66
2023/05/24 01:31:11;;;;;;;;;5.00;5.00;;;;;11.81;64.48;102463.97;5036090;28;10332;-66
2023/05/24 01:33:41;;;;;;;;;1.00;1.00;;;;;11.81;64.66;102464.81;5046245;28;10146;-66
2023/05/24 01:36:08;;;;;;;;;2.00;2.00;;;;;11.80;64.53;102473.94;5032480;28;10239;-67
2023/05/24 01:38:37;;;;;;;;;8.75;4.75;;;;;11.79;64.67;102466.00;5047347;28;10992;-66
2023/05/24 01:41:11;;;;;;;;;5.00;2.50;;;;;11.75;64.68;102470.00;5034301;28;10158;-66
2023/05/24 01:43:42;;;;;;;;;5.50;5.50;;;;;11.70;64.83;102473.19;5046806;28;10317;-66
2023/05/24 01:46:18;;;;;;;;;7.75;5.75;;;;;11.67;64.92;102472.66;5040993;28;10396;-66
2023/05/24 01:49:08;;;;;;;;;6.75;5.00;;;;;11.65;65.05;102462.06;5034304;28;10614;-66
2023/05/24 01:51:43;;;;;;;;;9.25;9.00;;;;;11.64;65.37;102463.06;5048426;28;10456;-66
2023/05/24 01:54:12;;;;;;;;;8.00;8.00;;;;;11.64;65.33;102460.38;5038509;28;10452;-66
2023/05/24 01:56:41;;;;;;;;;8.25;8.25;;;;;11.61;65.32;102455.28;5050769;28;10481;-66
2023/05/24 01:59:10;;;;;;;;;8.00;7.00;;;;;11.59;65.59;102449.22;5046863;28;10520;-67
2023/05/24 02:01:37;;;;;;;;;7.00;6.50;;;;;11.57;65.29;102460.16;5032881;28;10515;-67
2023/05/24 02:04:04;;;;;;;;;10.25;8.00;;;;;11.54;65.49;102460.47;5038372;28;10545;-67
2023/05/24 02:06:30;;;;;;;;;8.25;8.25;;;;;11.50;65.40;102450.19;5050075;28;10557;-66
2023/05/24 02:08:57;;;;;;;;;6.75;5.75;;;;;11.49;65.63;102451.19;5061523;28;10506;-66
2023/05/24 02:11:24;;;;;;;;;6.75;6.75;;;;;11.47;65.98;102450.53;5052330;28;10480;-67
2023/05/24 02:13:51;;;;;;;;;7.00;6.25;;;;;11.45;65.81;102447.13;5048520;28;10423;-66
2023/05/24 02:16:17;;;;;;;;;7.50;5.75;;;;;11.45;66.02;102444.44;5029562;28;10486;-67
2023/05/24 02:18:45;;;;;;;;;13.25;6.00;;;;;11.46;66.04;102446.94;5032254;28;11343;-65
2023/05/24 02:21:12;;;;;;;;;8.75;6.00;;;;;11.44;66.08;102442.75;5030796;28;10478;-67
2023/05/24 02:23:39;;;;;;;;;8.00;5.25;;;;;11.42;66.29;102447.44;5030488;28;10394;-65
2023/05/24 02:26:06;;;;;;;;;8.50;6.00;;;;;11.38;66.03;102442.38;5039799;28;10432;-66
2023/05/24 02:28:32;;;;;;;;;6.00;6.00;;;;;11.37;66.30;102442.53;5044157;28;10359;-66
2023/05/24 02:30:59;;;;;;;;;7.00;5.00;;;;;11.36;66.84;102447.09;5030633;28;10445;-66
2023/05/24 02:33:25;;;;;;;;;2.50;2.50;;;;;11.34;66.40;102442.84;5036011;28;10563;-66
2023/05/24 02:35:52;;;;;;;;;6.00;6.00;;;;;11.33;66.67;102450.09;5050116;28;10455;-66
2023/05/24 02:38:18;;;;;;;;;8.50;5.50;;;;;11.30;66.77;102442.34;5062316;28;11099;-66
2023/05/24 02:40:45;;;;;;;;;5.25;5.00;;;;;11.29;66.82;102443.31;5040833;28;11105;-65
2023/05/24 02:43:12;;;;;;;;;5.00;3.50;;;;;11.28;66.44;102441.63;5045709;28;10579;-66
2023/05/24 02:45:38;;;;;;;;;7.00;5.25;;;;;11.25;66.52;102444.66;5039274;28;10653;-66
2023/05/24 02:48:05;;;;;;;;;2.50;2.50;;;;;11.25;66.94;102446.50;5044140;28;10635;-66
2023/05/24 02:50:31;;;;;;;;;7.50;6.00;;;;;11.23;66.80;102443.97;5036820;28;10359;-65
2023/05/24 02:52:58;;;;;;;;;6.00;6.00;;;;;11.20;67.05;102449.69;5047268;28;10452;-66
2023/05/24 02:55:25;;;;;;;;;6.00;6.00;;;;;11.20;67.10;102456.94;5047479;28;10524;-67
2023/05/24 02:57:52;;;;;;;;;5.00;5.00;;;;;11.21;67.15;102447.81;5045084;28;11011;-66
2023/05/24 03:00:19;;;;;;;;;8.75;7.50;;;;;11.22;67.32;102447.69;5046808;28;10423;-67
2023/05/24 03:02:46;;;;;;;;;8.00;6.25;;;;;11.23;67.22;102446.69;5028707;28;10390;-66
2023/05/24 03:05:13;;;;;;;;;7.50;5.75;;;;;11.22;67.58;102441.44;5036807;28;10370;-66
2023/05/24 03:07:40;;;;;;;;;6.00;6.00;;;;;11.20;67.20;102446.16;5047502;28;11023;-66
2023/05/24 03:10:06;;;;;;;;;4.75;4.75;;;;;11.14;67.10;102445.78;5045264;28;10417;-66
2023/05/24 03:12:33;;;;;;;;;6.75;6.75;;;;;11.13;67.20;102440.53;5048433;28;10533;-67
2023/05/24 03:14:59;;;;;;;;;6.75;5.25;;;;;11.12;67.31;102437.00;5044984;28;10358;-65
2023/05/24 03:17:26;;;;;;;;;5.50;5.00;;;;;11.13;67.72;102446.75;5048498;28;10428;-65
2023/05/24 03:19:53;;;;;;;;;8.50;6.75;;;;;11.12;67.53;102441.53;5041098;28;10544;-66
2023/05/24 03:22:19;;;;;;;;;5.00;3.00;;;;;11.11;67.57;102445.25;5028674;28;10650;-67
2023/05/24 03:24:47;;;;;;;;;3.00;3.00;;;;;11.08;67.22;102442.88;5061092;28;10262;-65
2023/05/24 03:27:14;;;;;;;;;5.50;5.50;;;;;11.04;67.55;102438.78;5065128;28;10453;-66
2023/05/24 03:29:41;;;;;;;;;5.25;5.25;;;;;11.03;67.81;102448.72;5047466;28;10525;-66
2023/05/24 03:32:08;;;;;;;;;5.00;5.00;;;;;11.03;67.78;102443.34;5042325;28;10377;-66
2023/05/24 03:34:34;;;;;;;;;9.25;7.25;;;;;11.04;67.70;102439.63;5052112;28;10520;-67
2023/05/24 03:37:01;;;;;;;;;9.00;8.00;;;;;11.03;67.72;102448.72;5040692;28;10460;-66
2023/05/24 03:39:27;;;;;;;;;5.50;5.00;;;;;11.01;67.70;102448.03;5044637;28;10541;-65
2023/05/24 03:42:05;;;;;;;;;6.75;6.50;;;;;11.02;67.85;102448.88;5032661;28;10451;-65
2023/05/24 03:44:33;;;;;;;;;5.50;5.50;;;;;11.00;68.08;102449.03;5027474;28;10488;-66
2023/05/24 03:47:00;;;;;;;;;8.75;6.00;;;;;11.00;68.21;102448.19;5028263;28;10552;-65
2023/05/24 03:49:26;;;;;;;;;9.75;8.25;;;;;11.01;68.28;102456.13;5038656;28;10484;-66
2023/05/24 03:51:54;;;;;;;;;9.50;6.00;;;;;11.04;68.03;102449.56;5037772;28;10575;-66
2023/05/24 03:54:20;;;;;;;;;8.50;7.50;;;;;11.09;68.24;102452.63;5036114;28;10632;-66
2023/05/24 03:56:47;;;;;;;;;8.00;5.75;;;;;11.10;68.06;102444.41;5033663;28;10530;-66
2023/05/24 03:59:13;;;;;;;;;7.50;5.50;;;;;11.12;67.84;102447.78;5040272;28;10437;-66
2023/05/24 04:01:40;;;;;;;;;9.75;9.75;;;;;11.14;68.06;102439.56;5032199;28;10557;-67
2023/05/24 04:04:07;;;;;;;;;11.75;6.00;;;;;11.15;68.01;102438.53;5046333;28;11288;-68
2023/05/24 04:06:35;;;;;;;;;8.00;7.00;;;;;11.16;68.13;102434.00;5049574;28;10615;-67
2023/05/24 04:09:04;;;;;;;;;7.50;5.75;;;;;11.15;68.29;102438.53;5034137;28;10516;-66
2023/05/24 04:11:31;;;;;;;;;7.75;6.00;;;;;11.18;67.96;102440.06;5045173;28;10464;-66
2023/05/24 04:14:01;;;;;;;;;7.75;6.75;;;;;11.20;68.14;102436.19;5043101;28;10510;-66
2023/05/24 04:16:32;;;;;;;;;6.50;5.00;;;;;11.22;68.18;102442.28;5042088;28;10458;-66
2023/05/24 04:19:02;;;;;;;;;6.00;6.00;;;;;11.25;68.04;102439.25;5039394;28;10530;-67
2023/05/24 04:21:31;;;;;;;;;5.00;5.00;;;;;11.28;68.32;102440.81;5053874;28;10480;-67
2023/05/24 04:24:00;;;;;;;;;5.00;5.00;;;;;11.29;68.12;102451.41;5046208;28;10321;-66
2023/05/24 04:26:27;;;;;;;;;5.50;4.00;;;;;11.32;68.21;102445.72;5034298;28;10468;-67
2023/05/24 04:28:53;;;;;;;;;4.75;4.00;;;;;11.33;68.39;102450.09;5031500;28;10514;-66
2023/05/24 04:31:20;;;;;;;;;6.00;5.50;;;;;11.37;68.26;102448.75;5030997;28;10441;-66
2023/05/24 04:33:47;;;;;;;;;11.25;11.25;;;;;11.39;68.45;102441.38;5036256;28;10376;-66
2023/05/24 04:36:14;;;;;;;;;13.50;10.50;;;;;11.46;68.40;102446.09;5046926;28;10481;-66
2023/05/24 04:38:41;;;;;;;;;20.00;17.50;;;;;11.49;68.38;102435.00;5035696;28;10713;-67
2023/05/24 04:44:00;;;;;;;;;21.25;20.50;;;;;11.55;68.47;102431.69;5027027;28;10550;-66
2023/05/24 04:46:27;;;;;;;;;25.00;20.75;;;;;11.56;67.91;102428.81;5032098;28;11545;-69
2023/05/24 04:48:54;;;;;;;;;20.25;18.50;;;;;11.59;68.41;102428.50;5030313;28;10925;-69
2023/05/24 04:51:21;;;;;;;;;16.50;14.00;;;;;11.63;68.68;102439.81;5032962;28;11473;-69
2023/05/24 04:53:48;;;;;;;;;15.25;13.25;;;;;11.67;68.45;102440.31;5050617;28;11377;-68
2023/05/24 04:56:15;;;;;;;;;18.50;11.25;;;;;11.72;68.58;102440.69;5050262;28;11444;-69
2023/05/24 04:58:42;;;;;;;;;11.50;11.00;;;;;11.79;68.54;102436.34;5033067;28;10472;-69
2023/05/24 05:01:08;;;;;;;;;8.00;8.00;;;;;11.86;68.13;102434.69;5035017;28;11141;-68
2023/05/24 05:03:35;;;;;;;;;9.00;6.50;;;;;11.91;68.01;102442.28;5049130;28;10350;-69
2023/05/24 05:06:01;;;;;;;;;9.25;5.25;;;;;11.93;67.87;102434.88;5050538;28;10251;-69
2023/05/24 05:08:29;;;;;;;;;6.00;6.00;;;;;11.94;67.86;102439.25;5050671;28;10223;-69
2023/05/24 05:10:56;;;;;;;;;8.50;7.00;;;;;11.95;67.75;102444.50;5029462;28;10306;-68
2023/05/24 05:13:23;;;;;;;;;5.00;5.00;;;;;11.99;67.66;102447.69;5034583;28;10262;-69
2023/05/24 05:15:49;;;;;;;;;5.50;3.00;;;;;12.01;67.58;102449.25;5050590;28;10223;-70
2023/05/24 05:18:15;;;;;;;;;4.75;4.75;;;;;12.00;67.40;102458.34;5047965;28;10128;-69
2023/05/24 05:20:42;;;;;;;;;5.00;5.00;;;;;11.99;67.36;102458.50;5050934;28;10420;-69
2023/05/24 05:23:09;;;;;;;;;6.50;5.00;;;;;11.98;67.25;102460.34;5031332;28;10433;-70
2023/05/24 05:25:35;;;;;;;;;5.25;5.25;;;;;11.98;67.17;102460.34;5043471;28;10013;-69
2023/05/24 05:28:02;;;;;;;;;5.50;5.00;;;;;11.98;67.09;102459.50;5050534;28;10053;-68
2023/05/24 05:30:28;;;;;;;;;6.50;5.75;;;;;11.96;67.21;102462.38;5052516;28;10026;-68
2023/05/24 05:32:55;;;;;;;;;6.00;4.00;;;;;12.05;67.52;102472.19;5050420;28;9934;-69
2023/05/24 05:35:21;;;;;;;;;3.25;1.25;;;;;12.18;67.20;102460.91;5044159;28;10766;-70
2023/05/24 05:37:48;;;;;;;;;2.25;2.25;;;;;12.32;66.55;102462.16;5048635;28;10059;-69
2023/05/24 05:40:14;;;;;;;;;4.00;4.00;;;;;12.45;66.36;102467.06;5049057;28;9916;-70
2023/05/24 05:42:41;;;;;;;;;5.50;3.25;;;;;12.56;65.74;102470.28;5046114;28;10599;-69
2023/05/24 05:45:08;;;;;;;;;7.00;7.00;;;;;12.66;65.18;102474.66;5032217;28;9927;-69
2023/05/24 05:47:35;;;;;;;;;6.00;2.75;;;;;12.76;65.13;102476.22;5015726;28;10018;-70
2023/05/24 05:50:01;;;;;;;;;7.50;4.50;;;;;12.93;65.07;102470.78;5036196;28;10006;-66
2023/05/24 05:52:28;;;;;;;;;3.50;3.00;;;;;12.98;64.43;102473.81;5048023;28;10002;-70
2023/05/24 05:54:54;;;;;;;;;6.00;4.50;;;;;12.94;63.89;102470.63;5048206;28;9846;-69
2023/05/24 05:57:23;;;;;;;;;3.75;3.00;;;;;12.91;63.69;102465.53;5040360;28;9843;-69
2023/05/24 05:59:49;;;;;;;;;5.00;3.75;;;;;12.92;63.85;102463.69;5045960;28;9758;-67
2023/05/24 06:02:17;;;;;;;;;3.25;2.50;;;;;12.95;63.64;102468.75;5031126;28;9812;-69
2023/05/24 06:04:45;;;;;;;;;3.75;3.75;;;;;13.01;63.66;102479.75;5028397;28;10054;-69
2023/05/24 06:07:12;;;;;;;;;3.00;3.00;;;;;13.04;63.21;102468.56;5050343;28;9839;-69
2023/05/24 06:09:38;;;;;;;;;5.50;4.75;;;;;13.05;63.04;102474.84;5048963;28;9663;-69
2023/05/24 06:12:05;;;;;;;;;3.00;2.50;;;;;13.01;63.28;102476.19;5039657;28;9678;-70
2023/05/24 06:14:33;;;;;;;;;2.50;2.50;;;;;12.98;63.18;102476.53;5049664;28;9741;-70
2023/05/24 06:16:59;;;;;;;;;2.25;2.25;;;;;12.94;63.44;102483.28;5049962;28;9844;-69
2023/05/24 06:19:26;;;;;;;;;4.50;2.25;;;;;12.83;63.71;102479.06;5050322;28;9878;-67
2023/05/24 06:21:52;;;;;;;;;3.75;3.75;;;;;12.85;63.74;102482.44;5048808;28;9779;-69
2023/05/24 06:24:20;;;;;;;;;3.00;2.00;;;;;12.86;63.66;102487.69;5048228;28;9937;-70
2023/05/24 06:26:47;;;;;;;;;5.25;5.25;;;;;12.83;63.33;102490.72;5042933;28;9916;-69
2023/05/24 06:29:14;;;;;;;;;4.75;2.00;;;;;12.80;63.33;102480.25;5014366;28;10579;-69
2023/05/24 06:31:42;;;;;;;;;4.00;4.00;;;;;12.82;63.42;102485.47;5049593;28;9580;-69
2023/05/24 06:34:08;;;;;;;;;7.00;5.00;;;;;12.83;63.59;102484.47;5049562;28;9825;-69
2023/05/24 06:36:40;;;;;;;;;2.00;2.00;;;;;12.82;63.03;102486.31;5049345;28;9820;-70
2023/05/24 06:39:07;;;;;;;;;1.50;1.50;;;;;12.84;63.54;102488.84;5045811;28;9823;-68
2023/05/24 06:41:34;;;;;;;;;3.75;2.00;;;;;12.88;63.30;102479.38;5030038;28;10581;-69
2023/05/24 06:44:00;;;;;;;;;1.50;1.50;;;;;12.80;63.06;102477.56;5046615;28;9974;-70
2023/05/24 06:46:27;;;;;;;;;4.00;4.00;;;;;12.81;62.68;102483.81;5040956;28;9721;-70
2023/05/24 06:48:53;;;;;;;;;3.25;2.00;;;;;12.87;62.75;102480.41;5049691;28;9877;-69
2023/05/24 06:51:20;;;;;;;;;1.25;1.00;;;;;12.90;62.72;102479.25;5042760;28;9793;-70
2023/05/24 06:53:47;;;;;;;;;3.75;1.50;;;;;12.96;62.98;102479.38;5047145;28;9683;-69
2023/05/24 06:56:13;;;;;;;;;10.75;9.75;;;;;12.87;62.92;102489.34;5045122;28;9658;-69
2023/05/24 06:58:40;;;;;;;;;6.75;2.00;;;;;12.84;63.11;102476.22;5042228;28;9888;-69
2023/05/24 07:01:07;;;;;;;;;3.00;3.00;;;;;12.87;63.03;102491.22;5047341;28;9734;-68
2023/05/24 07:03:34;;;;;;;;;5.50;3.00;;;;;12.87;63.08;102486.66;5035034;28;9830;-69
2023/05/24 07:06:00;;;;;;;;;4.50;2.25;;;;;12.96;63.10;102492.06;5019369;28;9993;-70
2023/05/24 07:08:27;;;;;;;;;4.00;2.00;;;;;13.00;63.09;102501.50;5041607;28;9934;-68
2023/05/24 07:10:54;;;;;;;;;2.75;2.00;;;;;13.03;62.30;102493.06;5032003;28;9761;-69
2023/05/24 07:13:21;;;;;;;;;6.75;3.25;;;;;13.04;61.66;102498.31;5048115;28;9869;-70
2023/05/24 07:15:48;;;;;;;;;2.00;2.00;;;;;13.02;61.55;102494.09;5028804;28;9825;-69
2023/05/24 07:18:15;;;;;;;;;3.00;3.00;;;;;12.98;61.62;102501.69;5045125;28;9663;-69
2023/05/24 07:20:41;;;;;;;;;3.00;3.00;;;;;12.93;61.61;102505.94;5039246;28;9878;-68
2023/05/24 07:23:08;;;;;;;;;5.00;4.00;;;;;12.88;61.48;102506.41;5026063;28;9681;-69
2023/05/24 07:25:35;;;;;;;;;6.50;3.25;;;;;12.82;61.67;102501.69;5028371;28;9922;-70
2023/05/24 07:28:02;;;;;;;;;2.75;2.00;;;;;12.96;61.78;102486.66;5045720;28;9941;-70
2023/05/24 07:30:28;;;;;;;;;2.50;2.25;;;;;13.10;61.88;102485.97;5051755;28;9808;-70
2023/05/24 07:32:58;;;;;;;;;2.00;2.00;;;;;13.24;61.84;102496.13;5048586;28;9960;-69
2023/05/24 07:35:25;;;;;;;;;5.00;2.25;;;;;13.32;61.11;102493.41;5052994;28;9676;-69
2023/05/24 07:37:51;;;;;;;;;4.00;4.00;;;;;13.31;60.41;102491.72;5047901;28;9745;-70
2023/05/24 07:40:18;;;;;;;;;2.50;2.50;;;;;13.27;59.70;102495.78;5033171;28;9734;-70
2023/05/24 07:42:46;;;;;;;;;4.00;3.00;;;;;13.20;59.60;102496.59;5017131;28;9851;-70
2023/05/24 07:45:13;;;;;;;;;3.75;2.00;;;;;13.25;59.69;102494.28;5033930;28;9676;-69
2023/05/24 07:47:40;;;;;;;;;5.50;3.75;;;;;13.34;59.51;102490.53;5041870;28;9781;-69
2023/05/24 07:50:07;;;;;;;;;3.50;2.50;;;;;13.39;59.44;102487.31;5047940;28;9587;-69
2023/05/24 07:52:34;;;;;;;;;3.25;2.00;;;;;13.43;58.87;102485.97;5028967;28;9772;-70
2023/05/24 07:55:00;;;;;;;;;2.25;2.25;;;;;13.45;58.92;102482.06;5050727;28;9710;-70
2023/05/24 07:57:27;;;;;;;;;3.00;3.00;;;;;13.48;58.56;102491.69;5052882;28;9673;-69
2023/05/24 07:59:53;;;;;;;;;4.50;2.25;;;;;13.46;58.46;102486.47;5051535;28;9756;-67
2023/05/24 08:02:20;;;;;;;;;9.25;9.25;;;;;13.48;58.30;102495.22;5049773;28;9683;-69
2023/05/24 08:04:47;;;;;;;;;2.25;2.25;;;;;13.53;57.60;102497.41;5052414;28;10114;-70
2023/05/24 08:07:13;;;;;;;;;2.75;2.75;;;;;13.60;57.75;102493.00;5042787;28;9744;-69
2023/05/24 08:09:40;;;;;;;;;4.00;2.25;;;;;13.67;57.49;102487.75;5052720;28;9661;-70
2023/05/24 08:12:07;;;;;;;;;7.00;5.00;;;;;13.76;57.28;102492.09;5033064;28;9670;-69
2023/05/24 08:14:33;;;;;;;;;2.75;2.75;;;;;13.86;57.38;102484.63;5048471;28;9691;-69
2023/05/24 08:17:00;;;;;;;;;2.00;2.00;;;;;13.88;56.93;102487.16;5045310;28;10516;-70
2023/05/24 08:19:27;;;;;;;;;5.00;3.75;;;;;13.92;57.40;102475.78;5052596;28;9615;-70
2023/05/24 08:21:56;;;;;;;;;2.25;2.25;;;;;13.99;57.29;102479.50;5042627;28;9705;-70
2023/05/24 08:24:22;;;;;;;;;4.00;3.25;;;;;14.06;57.02;102479.63;5051913;28;9602;-70
2023/05/24 08:26:51;;;;;;;;;3.75;3.00;;;;;14.12;56.87;102470.78;5030433;28;9609;-70
2023/05/24 08:29:18;;;;;;;;;3.00;3.00;;;;;14.19;56.90;102485.31;5047625;28;9773;-69
2023/05/24 08:31:44;;;;;;;;;3.00;3.00;;;;;14.27;57.06;102481.72;5048304;28;9527;-70
2023/05/24 08:34:11;;;;;;;;;3.25;2.50;;;;;14.30;56.83;102482.22;5034165;28;9438;-70
2023/05/24 08:36:41;;;;;;;;;3.00;1.75;;;;;14.34;56.73;102478.13;5045564;28;9508;-69
2023/05/24 08:39:08;;;;;;;;;3.50;3.50;;;;;14.43;56.61;102469.94;5041023;28;9351;-70
2023/05/24 08:41:36;;;;;;;;;2.50;2.50;;;;;14.54;56.30;102473.09;5046691;28;9533;-70
2023/05/24 08:44:06;;;;;;;;;4.00;3.00;;;;;14.64;55.92;102483.69;5032820;28;9633;-70
2023/05/24 08:46:34;;;;;;;;;5.00;5.00;;;;;14.71;55.51;102490.06;5046292;28;9599;-69
2023/05/24 08:49:02;;;;;;;;;2.00;2.00;;;;;14.67;55.62;102488.75;5042167;28;9609;-69
2023/05/24 08:51:30;;;;;;;;;5.00;2.25;;;;;14.68;55.34;102486.88;5025127;28;9521;-70
2023/05/24 08:53:59;;;;;;;;;5.67;2.00;;;;;14.62;55.60;102487.59;5045172;28;9569;-70
2023/05/24 08:56:27;;;;;;;;;2.75;1.75;;;;;14.55;55.51;102492.91;5032986;28;9377;-68
2023/05/24 08:58:54;;;;;;;;;3.00;3.00;;;;;14.52;55.66;102488.69;5045726;28;9563;-70
2023/05/24 09:01:23;;;;;;;;;5.75;5.75;;;;;14.51;55.18;102494.28;5048211;28;9604;-70
2023/05/24 09:03:50;;;;;;;;;5.25;2.00;;;;;14.43;55.17;102478.91;5049045;28;9607;-70
2023/05/24 09:06:18;;;;;;;;;2.25;2.00;;;;;14.40;54.59;102490.09;5051085;28;9677;-70
2023/05/24 09:08:45;;;;;;;;;2.00;2.00;;;;;14.43;54.49;102492.44;5042191;28;9524;-68
2023/05/24 09:11:14;;;;;;;;;4.50;3.00;;;;;14.45;54.88;102481.41;5046115;28;9434;-70
2023/05/24 09:13:41;;;;;;;;;1.50;1.50;;;;;14.47;54.77;102488.34;5051422;28;9530;-70
2023/05/24 09:16:08;;;;;;;;;4.50;2.00;;;;;14.47;54.93;102487.50;5051070;28;9440;-70
2023/05/24 09:18:34;;;;;;;;;3.75;3.00;;;;;14.48;54.97;102489.19;5026811;28;9472;-70
2023/05/24 09:21:01;;;;;;;;;5.75;3.50;;;;;14.47;55.32;102490.22;5031381;28;9545;-70
2023/05/24 09:23:27;;;;;;;;;6.00;5.50;;;;;14.41;55.60;102488.22;5034183;28;9448;-69
2023/05/24 09:25:54;;;;;;;;;5.00;3.50;;;;;14.30;54.92;102487.63;5049102;28;9606;-70
2023/05/24 09:28:20;;;;;;;;;2.00;2.00;;;;;14.25;55.10;102484.59;5051379;28;9578;-70
2023/05/24 09:30:58;;;;;;;;;3.00;2.00;;;;;14.28;55.33;102484.22;5045839;28;9508;-67
2023/05/24 09:33:31;;;;;;;;;5.00;3.00;;;;;14.32;55.11;102476.59;5043675;28;9499;-70
2023/05/24 09:35:59;;;;;;;;;1.50;1.50;;;;;14.39;55.34;102476.72;5049360;28;9448;-69
2023/05/24 09:38:27;;;;;;;;;2.00;2.00;;;;;14.40;54.64;102476.53;5047317;28;9394;-69
2023/05/24 09:41:11;;;;;;;;;2.50;2.00;;;;;14.37;53.90;102482.31;5025725;28;9617;-70
2023/05/24 09:43:48;;;;;;;;;3.25;2.00;;;;;14.40;54.69;102473.00;5051010;28;9436;-70
2023/05/24 09:46:17;;;;;;;;;4.00;4.00;;;;;14.46;54.35;102474.97;5047436;28;9475;-70
2023/05/24 09:48:57;;;;;;;;;3.25;2.00;;;;;14.57;54.49;102472.72;5044992;28;10292;-69
2023/05/24 09:51:23;;;;;;;;;6.00;3.25;;;;;14.71;54.02;102472.97;5050942;28;9599;-70
2023/05/24 09:53:51;;;;;;;;;3.00;2.00;;;;;14.77;53.62;102474.94;5045407;28;9759;-69
2023/05/24 09:56:18;;;;;;;;;4.00;3.50;;;;;14.81;53.90;102479.81;5046246;28;9548;-70
2023/05/24 09:58:45;;;;;;;;;3.00;2.50;;;;;14.87;53.78;102482.81;5047352;28;9673;-70
2023/05/24 10:01:13;;;;;;;;;5.00;3.25;;;;;15.00;53.89;102470.34;5050277;28;9588;-70
2023/05/24 10:03:54;;;;;;;;;5.75;2.50;;;;;15.11;52.63;102474.50;5045400;28;9437;-69
2023/05/24 10:06:22;;;;;;;;;3.00;3.00;;;;;15.23;52.50;102480.28;5012984;28;9559;-68
2023/05/24 10:08:50;;;;;;;;;3.00;3.00;;;;;15.32;52.79;102473.75;5044363;28;9585;-69
2023/05/24 10:11:17;;;;;;;;;5.25;2.75;;;;;15.42;52.88;102476.19;5044537;28;9358;-69
2023/05/24 10:13:44;;;;;;;;;4.67;3.00;;;;;15.51;52.10;102458.78;5029197;28;9384;-70
2023/05/24 10:16:11;;;;;;;;;4.00;4.00;;;;;15.51;52.03;102481.31;5050156;28;9378;-69
2023/05/24 10:18:38;;;;;;;;;3.33;3.33;;;;;15.37;50.83;102474.03;5049019;28;9466;-68
2023/05/24 10:21:07;;;;;;;;;6.50;3.00;;;;;15.21;51.93;102475.06;5047160;28;9464;-69
2023/05/24 10:23:37;;;;;;;;;7.67;4.00;;;;;15.16;51.92;102479.34;5050157;28;9448;-70
2023/05/24 10:26:07;;;;;;;;;4.75;3.75;;;;;15.06;52.45;102477.72;5046372;28;9491;-69
2023/05/24 10:28:38;;;;;;;;;6.00;4.00;;;;;15.01;52.34;102480.16;5050277;28;9549;-69
2023/05/24 10:31:15;;;;;;;;;3.67;2.33;;;;;14.96;52.35;102479.03;5042839;28;9375;-70
2023/05/24 10:33:45;;;;;;;;;4.33;4.00;;;;;14.82;52.60;102486.06;5048856;28;9359;-70
2023/05/24 10:36:14;;;;;;;;;5.50;3.25;;;;;14.79;53.65;102484.59;5023525;28;9341;-66
2023/05/24 10:38:42;;;;;;;;;5.00;4.50;;;;;14.87;53.91;102488.25;5041279;28;9566;-69
2023/05/24 10:41:11;;;;;;;;;2.50;2.50;;;;;14.89;53.91;102483.50;5049793;28;9402;-70
2023/05/24 10:43:39;;;;;;;;;3.67;1.67;;;;;14.94;54.31;102483.78;5048496;28;9377;-70
2023/05/24 10:46:07;;;;;;;;;2.33;2.33;;;;;14.98;53.64;102488.66;5047008;28;9405;-69
2023/05/24 10:48:36;;;;;;;;;7.00;5.00;;;;;14.93;53.52;102491.06;5043483;28;10015;-68
2023/05/24 10:51:38;;;;;;;;;6.00;3.67;;;;;14.88;53.57;102493.50;5025915;28;9300;-70
2023/05/24 10:54:15;;;;;;;;;3.75;3.75;;;;;14.84;54.14;102489.47;5019721;28;9552;-69
2023/05/24 10:56:47;;;;;;;;;3.00;3.00;;;;;14.73;54.09;102485.31;5048858;28;9439;-69
2023/05/24 10:59:28;;;;;;;;;4.25;3.00;;;;;14.69;54.48;102478.56;5031032;28;9438;-70
2023/05/24 11:01:59;;;;;;;;;1.33;1.00;;;;;14.65;55.30;102482.66;5046899;28;9559;-69
2023/05/24 11:04:30;;;;;;;;;5.50;4.00;;;;;14.65;55.41;102488.09;5051660;28;9290;-70
2023/05/24 11:07:02;;;;;;;;;6.75;5.00;;;;;14.63;54.87;102481.19;5034741;28;9461;-70
2023/05/24 11:09:30;;;;;;;;;5.00;5.00;;;;;14.64;55.31;102482.84;5047092;28;9598;-70
2023/05/24 11:12:06;;;;;;;;;2.00;2.00;;;;;14.63;55.35;102476.59;5042227;28;10249;-68
2023/05/24 11:14:41;;;;;;;;;3.50;3.50;;;;;14.62;55.38;102477.59;5019604;28;9384;-71
2023/05/24 11:17:08;;;;;;;;;6.00;4.00;;;;;14.62;54.95;102479.47;5045126;28;9444;-70
2023/05/24 11:19:34;;;;;;;;;4.00;3.25;;;;;14.58;55.54;102478.97;5042707;28;9743;-69
2023/05/24 11:22:04;;;;;;;;;1.25;1.25;;;;;14.58;55.63;102476.28;5040263;28;9507;-71
2023/05/24 11:24:32;;;;;;;;;2.25;1.75;;;;;14.63;56.05;102482.00;5049017;28;9431;-69
2023/05/24 11:27:01;;;;;;;;;3.50;3.00;;;;;14.64;55.62;102486.41;5041182;28;9437;-70
2023/05/24 11:29:28;;;;;;;;;2.25;1.75;;;;;14.68;55.51;102479.59;5043658;28;9599;-70
2023/05/24 11:32:01;;;;;;;;;3.00;3.00;;;;;14.69;55.68;102480.44;5042441;28;9635;-70
2023/05/24 11:34:28;;;;;;;;;3.00;3.00;;;;;14.83;55.83;102482.38;5016639;28;9445;-70
2023/05/24 11:36:55;;;;;;;;;5.25;5.00;;;;;14.91;54.67;102490.44;5020795;28;9369;-71
2023/05/24 11:39:22;;;;;;;;;1.00;1.00;;;;;14.86;55.03;102487.41;5030895;28;9517;-69